createdAt,value
2023-05-23T00:02:29.244Z,15.20
2023-05-23T00:04:58.762Z,15.10
2023-05-23T00:07:27.788Z,15.10
2023-05-23T00:09:56.477Z,15.10
2023-05-23T00:12:25.146Z,15.00
2023-05-23T00:14:54.358Z,15.00
2023-05-23T00:17:25.797Z,15.00
2023-05-23T00:19:56.335Z,14.90
2023-05-23T00:22:25.137Z,14.90
2023-05-23T00:24:54.377Z,14.90
2023-05-23T00:27:23.057Z,14.70
2023-05-23T00:29:51.737Z,14.70
2023-05-23T00:32:20.508Z,14.70
2023-05-23T00:34:50.920Z,14.60
2023-05-23T00:37:19.654Z,14.50
2023-05-23T00:39:48.330Z,14.50
2023-05-23T00:42:17.040Z,14.40
2023-05-23T00:44:45.662Z,14.40
2023-05-23T00:47:14.451Z,14.40
2023-05-23T00:49:43.401Z,14.30
2023-05-23T00:52:13.730Z,14.30
2023-05-23T00:54:43.216Z,14.40
2023-05-23T00:57:11.976Z,14.40
2023-05-23T00:59:41.074Z,14.40
2023-05-23T01:02:10.853Z,14.50
2023-05-23T01:04:40.407Z,14.40
2023-05-23T01:07:10.453Z,14.40
2023-05-23T01:09:40.636Z,14.40
2023-05-23T01:12:18.673Z,14.40
2023-05-23T01:14:52.993Z,14.40
2023-05-23T01:17:30.972Z,14.30
2023-05-23T01:20:09.439Z,14.30
2023-05-23T01:23:01.774Z,14.30
2023-05-23T01:25:49.922Z,14.30
2023-05-23T01:28:23.428Z,14.30
2023-05-23T01:30:58.805Z,14.30
2023-05-23T01:33:28.898Z,14.20
2023-05-23T01:35:59.789Z,14.30
2023-05-23T01:38:28.485Z,14.20
2023-05-23T01:40:57.298Z,14.20
2023-05-23T01:43:28.075Z,14.10
2023-05-23T01:45:58.929Z,14.10
2023-05-23T01:48:29.215Z,14.10
2023-05-23T01:50:58.127Z,14.10
2023-05-23T01:53:27.731Z,14.10
2023-05-23T01:55:57.008Z,14.10
2023-05-23T01:58:27.377Z,14.10
2023-05-23T02:00:56.197Z,14.00
2023-05-23T02:03:25.012Z,14.00
2023-05-23T02:05:53.823Z,14.00
2023-05-23T02:08:22.525Z,13.90
2023-05-23T02:10:51.403Z,13.90
2023-05-23T02:13:20.186Z,13.90
2023-05-23T02:15:50.317Z,13.80
2023-05-23T02:18:19.405Z,13.90
2023-05-23T02:20:48.760Z,13.80
2023-05-23T02:23:17.403Z,13.80
2023-05-23T02:25:46.032Z,13.70
2023-05-23T02:28:14.757Z,13.70
2023-05-23T02:30:43.456Z,13.60
2023-05-23T02:33:13.676Z,13.50
2023-05-23T02:35:42.725Z,13.50
2023-05-23T02:38:11.625Z,13.50
2023-05-23T02:40:40.311Z,13.50
2023-05-23T02:43:09.020Z,13.50
2023-05-23T02:45:37.781Z,13.30
2023-05-23T02:48:06.769Z,13.40
2023-05-23T02:50:37.048Z,13.40
2023-05-23T02:53:05.935Z,13.40
2023-05-23T02:55:36.989Z,13.40
2023-05-23T02:58:07.312Z,13.40
2023-05-23T03:00:36.379Z,13.50
2023-05-23T03:03:05.289Z,13.40
2023-05-23T03:05:34.071Z,13.40
2023-05-23T03:08:04.371Z,13.40
2023-05-23T03:10:33.179Z,13.40
2023-05-23T03:13:02.013Z,13.40
2023-05-23T03:15:30.914Z,13.30
2023-05-23T03:17:59.724Z,13.30
2023-05-23T03:20:28.528Z,13.20
2023-05-23T03:22:57.456Z,13.10
2023-05-23T03:25:27.645Z,13.00
2023-05-23T03:27:56.486Z,12.90
2023-05-23T03:30:25.319Z,12.90
2023-05-23T03:32:54.784Z,13.00
2023-05-23T03:35:23.653Z,13.20
2023-05-23T03:37:52.394Z,13.20
2023-05-23T03:40:21.249Z,13.40
2023-05-23T03:43:05.055Z,13.50
2023-05-23T03:45:34.340Z,13.50
2023-05-23T03:48:03.367Z,13.60
2023-05-23T03:50:32.389Z,13.60
2023-05-23T03:53:01.226Z,13.70
2023-05-23T03:55:32.160Z,13.80
2023-05-23T03:58:02.446Z,13.90
2023-05-23T04:00:31.340Z,13.90
2023-05-23T04:03:00.249Z,14.00
2023-05-23T04:05:29.079Z,14.10
2023-05-23T04:07:57.969Z,14.00
2023-05-23T04:10:26.894Z,14.00
2023-05-23T04:12:57.183Z,14.10
2023-05-23T04:15:28.364Z,14.20
2023-05-23T04:17:58.446Z,14.30
2023-05-23T04:20:27.582Z,14.40
2023-05-23T04:22:56.320Z,14.40
2023-05-23T04:25:25.162Z,14.40
2023-05-23T04:27:54.561Z,14.30
2023-05-23T04:30:23.554Z,14.30
2023-05-23T04:32:54.111Z,14.40
2023-05-23T04:35:23.262Z,14.50
2023-05-23T04:37:56.811Z,14.50
2023-05-23T04:40:25.658Z,14.60
2023-05-23T04:42:54.348Z,14.70
2023-05-23T04:45:23.005Z,14.80
2023-05-23T04:47:54.956Z,15.00
2023-05-23T04:50:23.998Z,15.10
2023-05-23T04:52:52.695Z,15.20
2023-05-23T04:55:21.732Z,15.30
2023-05-23T04:57:51.032Z,15.40
2023-05-23T05:00:20.640Z,15.50
2023-05-23T05:02:49.425Z,15.50
2023-05-23T05:05:19.882Z,15.60
2023-05-23T05:07:48.503Z,15.80
2023-05-23T05:10:18.195Z,15.90
2023-05-23T05:12:47.444Z,16.10
2023-05-23T05:15:16.209Z,16.30
2023-05-23T05:17:45.696Z,16.30
2023-05-23T05:20:15.929Z,16.30
2023-05-23T05:22:47.362Z,16.20
2023-05-23T05:25:16.089Z,16.20
2023-05-23T05:27:44.804Z,16.40
2023-05-23T05:30:14.428Z,16.40
2023-05-23T05:32:46.569Z,16.60
2023-05-23T05:35:15.466Z,16.80
2023-05-23T05:37:45.940Z,17.10
2023-05-23T05:40:14.787Z,17.30
2023-05-23T05:42:43.351Z,17.40
2023-05-23T05:45:12.888Z,17.50
2023-05-23T05:47:42.046Z,17.70
2023-05-23T05:50:11.609Z,17.80
2023-05-23T05:52:40.679Z,18.00
2023-05-23T05:55:12.744Z,18.20
2023-05-23T05:57:41.845Z,18.20
2023-05-23T06:00:15.156Z,18.40
2023-05-23T06:02:44.727Z,18.60
2023-05-23T06:05:13.654Z,18.90
2023-05-23T06:07:42.352Z,19.10
2023-05-23T06:10:14.142Z,19.10
2023-05-23T06:12:43.041Z,19.10
2023-05-23T06:15:13.635Z,19.10
2023-05-23T06:17:42.566Z,19.10
2023-05-23T06:20:12.523Z,19.10
2023-05-23T06:22:41.351Z,19.30
2023-05-23T06:25:12.307Z,19.40
2023-05-23T06:27:41.108Z,19.60
2023-05-23T06:30:11.250Z,19.70
2023-05-23T06:32:41.195Z,19.80
2023-05-23T06:35:10.634Z,19.70
2023-05-23T06:37:40.640Z,19.70
2023-05-23T06:40:09.928Z,19.80
2023-05-23T06:42:40.200Z,19.90
2023-05-23T06:45:10.310Z,20.10
2023-05-23T06:47:39.076Z,20.40
2023-05-23T06:50:09.431Z,20.70
2023-05-23T06:52:38.197Z,21.20
2023-05-23T06:55:08.045Z,21.60
2023-05-23T06:57:36.899Z,21.80
2023-05-23T07:00:10.568Z,22.30
2023-05-23T07:02:40.086Z,22.80
2023-05-23T07:05:09.759Z,23.50
2023-05-23T07:07:39.854Z,23.80
2023-05-23T07:10:10.088Z,23.90
2023-05-23T07:12:41.476Z,23.90
2023-05-23T07:15:12.941Z,24.00
2023-05-23T07:17:41.786Z,24.30
2023-05-23T07:20:11.717Z,24.70
2023-05-23T07:22:40.412Z,25.50
2023-05-23T07:25:10.301Z,26.10
2023-05-23T07:27:39.185Z,27.10
2023-05-23T07:30:11.060Z,27.80
2023-05-23T07:32:39.835Z,28.80
2023-05-23T07:35:09.215Z,29.50
2023-05-23T07:37:37.820Z,29.90
2023-05-23T07:40:09.456Z,30.20
2023-05-23T07:42:47.620Z,30.40
2023-05-23T07:45:36.727Z,30.40
2023-05-23T07:48:31.302Z,30.10
2023-05-23T07:51:01.805Z,29.50
2023-05-23T07:53:30.528Z,29.30
2023-05-23T07:55:59.321Z,29.10
2023-05-23T07:58:27.945Z,28.80
2023-05-23T08:00:58.612Z,28.40
2023-05-23T08:03:39.696Z,28.20
2023-05-23T08:06:09.226Z,27.70
2023-05-23T08:08:38.242Z,26.80
2023-05-23T08:11:07.325Z,26.60
2023-05-23T08:13:36.101Z,26.50
2023-05-23T08:16:08.155Z,26.20
2023-05-23T08:18:37.174Z,26.10
2023-05-23T08:21:06.318Z,26.10
2023-05-23T08:23:35.050Z,25.90
2023-05-23T08:26:03.793Z,25.60
2023-05-23T08:28:34.907Z,25.50
2023-05-23T08:31:03.841Z,25.40
2023-05-23T08:33:34.060Z,25.20
2023-05-23T08:36:02.924Z,24.50
2023-05-23T08:38:32.257Z,24.10
2023-05-23T08:41:03.776Z,23.70
2023-05-23T08:43:32.771Z,23.10
2023-05-23T08:46:01.770Z,22.70
2023-05-23T08:48:31.110Z,22.70
2023-05-23T08:51:02.739Z,22.90
2023-05-23T08:53:33.548Z,23.10
2023-05-23T08:56:03.902Z,23.30
2023-05-23T08:58:42.593Z,23.60
2023-05-23T09:01:12.460Z,23.70
2023-05-23T09:03:42.782Z,23.80
2023-05-23T09:06:13.168Z,23.90
2023-05-23T09:08:42.111Z,23.90
2023-05-23T09:11:13.252Z,23.90
2023-05-23T09:13:42.125Z,24.00
2023-05-23T09:16:13.079Z,23.90
2023-05-23T09:18:43.558Z,23.90
2023-05-23T09:21:15.070Z,23.60
2023-05-23T09:23:43.888Z,23.50
2023-05-23T09:26:13.588Z,23.50
2023-05-23T09:29:05.030Z,22.80
2023-05-23T09:31:34.911Z,22.40
2023-05-23T09:34:07.216Z,22.50
2023-05-23T09:36:37.972Z,22.40
2023-05-23T09:39:06.936Z,22.60
2023-05-23T09:50:12.592Z,22.80
2023-05-23T09:53:01.836Z,22.40
2023-05-23T09:55:44.868Z,22.30
2023-05-23T09:58:14.715Z,22.30
2023-05-23T10:00:44.958Z,22.40
2023-05-23T10:03:15.137Z,22.40
2023-05-23T10:05:48.627Z,22.40
2023-05-23T10:08:22.384Z,22.20
2023-05-23T10:11:35.023Z,22.10
2023-05-23T10:14:08.166Z,22.10
2023-05-23T10:16:45.791Z,22.00
2023-05-23T10:19:24.307Z,21.70
2023-05-23T10:21:59.747Z,21.50
2023-05-23T10:24:30.557Z,21.30
2023-05-23T10:27:00.281Z,21.20
2023-05-23T10:29:30.652Z,21.20
2023-05-23T10:32:00.344Z,21.40
2023-05-23T10:34:35.965Z,21.60
2023-05-23T10:37:06.887Z,21.80
2023-05-23T10:39:54.199Z,22.10
2023-05-23T10:42:32.638Z,22.20
2023-05-23T10:45:16.767Z,22.30
2023-05-23T10:47:45.728Z,22.40
2023-05-23T10:50:15.426Z,22.80
2023-05-23T10:52:45.359Z,23.20
2023-05-23T10:55:18.714Z,23.50
2023-05-23T10:57:48.456Z,23.50
2023-05-23T11:00:19.830Z,23.20
2023-05-23T11:02:56.805Z,23.40
2023-05-23T11:05:28.453Z,23.70
2023-05-23T11:08:10.342Z,24.00
2023-05-23T11:10:57.449Z,24.10
2023-05-23T11:13:26.594Z,24.50
2023-05-23T11:15:55.507Z,24.60
2023-05-23T11:18:26.170Z,25.00
2023-05-23T11:20:55.796Z,25.10
2023-05-23T11:23:25.711Z,25.30
2023-05-23T11:25:56.945Z,25.50
2023-05-23T11:28:25.729Z,25.80
2023-05-23T11:30:54.549Z,25.80
2023-05-23T11:33:23.425Z,25.90
2023-05-23T11:35:53.236Z,25.80
2023-05-23T11:38:22.225Z,26.00
2023-05-23T11:40:51.188Z,26.00
2023-05-23T11:43:21.550Z,26.20
2023-05-23T11:45:50.489Z,26.40
2023-05-23T11:48:19.586Z,26.80
2023-05-23T11:50:51.331Z,27.20
2023-05-23T11:53:22.375Z,27.70
2023-05-23T11:55:53.438Z,28.60
2023-05-23T11:58:27.892Z,28.80
2023-05-23T12:01:02.106Z,28.80
2023-05-23T12:03:31.103Z,28.80
2023-05-23T12:06:01.138Z,29.30
2023-05-23T12:08:30.201Z,29.50
2023-05-23T12:11:00.280Z,29.40
2023-05-23T12:13:31.713Z,28.80
2023-05-23T12:16:02.319Z,28.70
2023-05-23T12:18:32.479Z,28.60
2023-05-23T12:21:06.295Z,28.10
2023-05-23T12:23:36.892Z,27.50
2023-05-23T12:26:08.462Z,27.30
2023-05-23T12:28:40.358Z,26.90
2023-05-23T12:31:13.743Z,26.50
2023-05-23T12:33:45.449Z,26.20
2023-05-23T12:36:14.629Z,26.10
2023-05-23T12:38:46.548Z,26.00
2023-05-23T12:41:20.001Z,25.90
2023-05-23T12:43:54.477Z,26.10
2023-05-23T12:46:24.229Z,26.20
2023-05-23T12:48:53.413Z,26.80
2023-05-23T12:51:22.993Z,27.90
2023-05-23T12:53:52.394Z,28.60
2023-05-23T12:56:22.631Z,28.80
2023-05-23T12:58:54.142Z,29.10
2023-05-23T13:01:23.471Z,29.20
2023-05-23T13:03:52.342Z,29.40
2023-05-23T13:06:21.770Z,29.20
2023-05-23T13:08:51.397Z,29.30
2023-05-23T13:11:20.373Z,29.60
2023-05-23T13:13:49.644Z,29.50
2023-05-23T13:16:20.102Z,30.20
2023-05-23T13:18:49.064Z,31.50
2023-05-23T13:21:17.958Z,32.60
2023-05-23T13:23:46.754Z,33.70
2023-05-23T13:26:15.958Z,34.60
2023-05-23T13:28:44.787Z,35.10
2023-05-23T13:31:14.138Z,35.30
2023-05-23T13:33:44.662Z,35.80
2023-05-23T13:36:14.263Z,35.80
2023-05-23T13:38:42.977Z,36.20
2023-05-23T13:41:11.739Z,37.10
2023-05-23T13:43:41.124Z,37.50
2023-05-23T13:46:10.061Z,37.30
2023-05-23T13:48:39.255Z,37.70
2023-05-23T13:51:10.821Z,36.70
2023-05-23T13:53:39.816Z,34.90
2023-05-23T13:56:08.691Z,34.00
2023-05-23T13:58:38.027Z,33.20
2023-05-23T14:01:21.390Z,32.40
2023-05-23T14:03:50.733Z,32.00
2023-05-23T14:06:21.161Z,31.70
2023-05-23T14:08:49.955Z,31.20
2023-05-23T14:11:19.137Z,30.90
2023-05-23T14:13:47.919Z,30.60
2023-05-23T14:16:16.633Z,30.50
2023-05-23T14:18:45.484Z,30.50
2023-05-23T14:21:14.383Z,30.60
2023-05-23T14:23:44.623Z,30.10
2023-05-23T14:26:13.332Z,29.60
2023-05-23T14:28:42.043Z,29.40
2023-05-23T14:31:10.838Z,28.90
2023-05-23T14:33:39.480Z,28.60
2023-05-23T14:36:08.681Z,28.20
2023-05-23T14:38:39.242Z,27.80
2023-05-23T14:41:09.394Z,27.70
2023-05-23T14:43:38.180Z,28.00
2023-05-23T14:46:08.892Z,28.10
2023-05-23T14:48:37.802Z,27.80
2023-05-23T14:51:07.551Z,27.40
2023-05-23T14:53:36.806Z,27.40
2023-05-23T14:56:06.522Z,27.10
2023-05-23T14:58:36.865Z,26.50
2023-05-23T15:01:08.037Z,26.50
2023-05-23T15:03:36.891Z,26.20
2023-05-23T15:06:07.881Z,26.10
2023-05-23T15:08:37.781Z,25.90
2023-05-23T15:11:07.153Z,25.90
2023-05-23T15:13:37.856Z,25.90
2023-05-23T15:16:16.545Z,25.70
2023-05-23T15:18:45.457Z,25.50
2023-05-23T15:21:14.642Z,25.50
2023-05-23T15:23:43.996Z,25.50
2023-05-23T15:26:12.980Z,25.60
2023-05-23T15:28:43.024Z,25.90
2023-05-23T15:31:11.767Z,25.90
2023-05-23T15:33:40.543Z,25.90
2023-05-23T15:36:10.035Z,25.70
2023-05-23T15:38:38.850Z,25.50
2023-05-23T15:41:07.755Z,25.00
2023-05-23T15:43:36.769Z,24.90
2023-05-23T15:46:08.772Z,24.80
2023-05-23T15:48:37.595Z,24.60
2023-05-23T15:51:06.724Z,24.60
2023-05-23T15:53:47.904Z,24.60
2023-05-23T15:56:24.421Z,24.50
2023-05-23T15:58:53.260Z,24.20
2023-05-23T16:01:23.520Z,24.00
2023-05-23T16:03:52.581Z,23.80
2023-05-23T16:06:21.402Z,23.70
2023-05-23T16:08:50.282Z,23.50
2023-05-23T16:11:19.223Z,23.40
2023-05-23T16:13:48.068Z,23.40
2023-05-23T16:16:16.895Z,23.50
2023-05-23T16:18:47.299Z,23.60
2023-05-23T16:21:20.645Z,23.70
2023-05-23T16:23:50.198Z,23.80
2023-05-23T16:26:19.665Z,24.00
2023-05-23T16:28:48.591Z,23.90
2023-05-23T16:31:18.258Z,23.80
2023-05-23T16:33:48.427Z,23.70
2023-05-23T16:36:17.211Z,23.50
2023-05-23T16:38:46.173Z,23.30
2023-05-23T16:41:15.081Z,23.30
2023-05-23T16:43:43.873Z,23.20
2023-05-23T16:46:12.715Z,22.90
2023-05-23T16:48:41.576Z,22.80
2023-05-23T16:51:11.744Z,22.70
2023-05-23T16:53:40.472Z,22.80
2023-05-23T16:56:09.279Z,22.70
2023-05-23T16:58:38.997Z,22.80
2023-05-23T17:01:08.734Z,22.70
2023-05-23T17:03:37.784Z,22.50
2023-05-23T17:06:06.810Z,22.60
2023-05-23T17:08:37.072Z,22.40
2023-05-23T17:11:06.174Z,22.40
2023-05-23T17:13:35.005Z,22.40
2023-05-23T17:16:03.936Z,22.30
2023-05-23T17:18:33.409Z,22.40
2023-05-23T17:21:02.394Z,22.50
2023-05-23T17:23:31.148Z,22.50
2023-05-23T17:26:01.412Z,22.60
2023-05-23T17:28:30.509Z,22.40
2023-05-23T17:30:59.326Z,22.10
2023-05-23T17:33:28.092Z,21.80
2023-05-23T17:35:56.907Z,21.40
2023-05-23T17:38:25.772Z,21.20
2023-05-23T17:40:54.793Z,21.20
2023-05-23T17:43:25.202Z,21.30
2023-05-23T17:45:55.772Z,21.10
2023-05-23T17:48:38.299Z,21.20
2023-05-23T17:51:14.351Z,20.80
2023-05-23T17:53:43.222Z,20.60
2023-05-23T17:56:12.441Z,20.50
2023-05-23T17:58:44.248Z,20.50
2023-05-23T18:01:13.880Z,20.40
2023-05-23T18:03:42.812Z,20.30
2023-05-23T18:06:11.768Z,20.20
2023-05-23T18:08:40.637Z,20.20
2023-05-23T18:11:11.114Z,20.00
2023-05-23T18:13:42.836Z,19.90
2023-05-23T18:16:12.352Z,19.90
2023-05-23T18:18:42.046Z,19.70
2023-05-23T18:21:11.587Z,19.60
2023-05-23T18:23:40.584Z,19.50
2023-05-23T18:26:09.874Z,19.50
2023-05-23T18:28:39.078Z,19.60
2023-05-23T18:31:10.086Z,19.60
2023-05-23T18:33:39.166Z,19.30
2023-05-23T18:36:09.197Z,19.40
2023-05-23T18:38:38.714Z,19.30
2023-05-23T18:41:08.183Z,19.20
2023-05-23T18:43:37.291Z,19.10
2023-05-23T18:46:08.996Z,19.00
2023-05-23T18:48:41.268Z,18.80
2023-05-23T18:51:12.828Z,18.80
2023-05-23T18:53:43.818Z,18.90
2023-05-23T18:56:15.014Z,18.70
2023-05-23T18:58:46.608Z,18.70
2023-05-23T19:01:17.812Z,18.50
2023-05-23T19:03:48.943Z,18.60
2023-05-23T19:06:18.025Z,18.50
2023-05-23T19:08:47.186Z,18.50
2023-05-23T19:11:16.491Z,18.50
2023-05-23T19:13:46.594Z,18.50
2023-05-23T19:16:16.100Z,18.30
2023-05-23T19:18:45.470Z,18.40
2023-05-23T19:21:17.959Z,18.30
2023-05-23T19:23:47.607Z,18.40
2023-05-23T19:26:18.348Z,18.30
2023-05-23T19:28:48.820Z,18.30
2023-05-23T19:31:18.109Z,18.30
2023-05-23T19:33:47.503Z,18.30
2023-05-23T19:36:19.671Z,18.20
2023-05-23T19:38:48.980Z,18.10
2023-05-23T19:41:20.169Z,18.00
2023-05-23T19:43:49.807Z,17.90
2023-05-23T19:46:19.177Z,17.90
2023-05-23T19:48:49.087Z,17.80
2023-05-23T19:51:19.302Z,17.90
2023-05-23T19:53:49.336Z,18.00
2023-05-23T19:56:18.690Z,18.00
2023-05-23T19:58:48.355Z,17.90
2023-05-23T20:01:18.739Z,17.80
2023-05-23T20:03:48.119Z,17.70
2023-05-23T20:06:18.873Z,17.70
2023-05-23T20:08:49.799Z,17.80
2023-05-23T20:11:18.863Z,17.60
2023-05-23T20:13:49.203Z,17.50
2023-05-23T20:16:18.836Z,17.60
2023-05-23T20:18:48.785Z,17.50
2023-05-23T20:21:20.878Z,17.60
2023-05-23T20:23:50.541Z,17.60
2023-05-23T20:26:21.788Z,17.60
2023-05-23T20:28:50.858Z,17.60
2023-05-23T20:31:19.896Z,17.60
2023-05-23T20:33:50.045Z,17.60
2023-05-23T20:36:22.869Z,17.60
2023-05-23T20:38:53.007Z,17.70
2023-05-23T20:41:24.731Z,17.70
2023-05-23T20:43:53.789Z,17.70
2023-05-23T20:46:23.234Z,17.70
2023-05-23T20:48:53.898Z,17.80
2023-05-23T20:51:24.542Z,17.80
2023-05-23T20:53:54.624Z,17.60
2023-05-23T20:57:03.897Z,17.50
2023-05-23T20:59:33.243Z,17.40
2023-05-23T21:02:02.203Z,17.40
2023-05-23T21:04:33.241Z,17.30
2023-05-23T21:07:04.314Z,17.10
2023-05-23T21:09:33.148Z,17.10
2023-05-23T21:12:02.170Z,17.00
2023-05-23T21:14:32.557Z,17.00
2023-05-23T21:17:03.838Z,17.00
2023-05-23T21:19:33.350Z,16.90
2023-05-23T21:22:04.537Z,16.90
2023-05-23T21:24:33.810Z,16.90
2023-05-23T21:27:03.282Z,16.80
2023-05-23T21:29:32.186Z,16.70
2023-05-23T21:32:01.826Z,16.70
2023-05-23T21:34:30.701Z,16.60
2023-05-23T21:36:59.544Z,16.60
2023-05-23T21:39:42.962Z,16.50
2023-05-23T21:42:17.752Z,16.50
2023-05-23T21:44:46.614Z,16.50
2023-05-23T21:47:15.655Z,16.40
2023-05-23T21:49:44.722Z,16.40
2023-05-23T21:52:13.934Z,16.40
2023-05-23T21:54:46.265Z,16.30
2023-05-23T21:57:15.071Z,16.40
2023-05-23T21:59:43.831Z,16.40
2023-05-23T22:02:12.724Z,16.40
2023-05-23T22:04:41.932Z,16.30
2023-05-23T22:07:10.805Z,16.40
2023-05-23T22:09:39.891Z,16.20
2023-05-23T22:12:10.746Z,16.20
2023-05-23T22:14:39.724Z,16.10
2023-05-23T22:17:08.697Z,16.10
2023-05-23T22:19:37.860Z,16.00
2023-05-23T22:22:08.194Z,16.20
2023-05-23T22:24:37.091Z,16.20
2023-05-23T22:27:06.662Z,16.20
2023-05-23T22:29:36.870Z,16.20
2023-05-23T22:32:06.326Z,16.30
2023-05-23T22:34:35.078Z,16.30
2023-05-23T22:37:03.875Z,16.20
2023-05-23T22:39:32.657Z,16.40
2023-05-23T22:42:02.078Z,16.50
2023-05-23T22:44:30.944Z,16.50
2023-05-23T22:47:01.120Z,16.60
2023-05-23T22:49:30.385Z,16.60
2023-05-23T22:51:59.531Z,16.50
2023-05-23T22:54:28.242Z,16.40
2023-05-23T22:56:57.101Z,16.50
2023-05-23T22:59:25.887Z,16.60
2023-05-23T23:01:54.688Z,16.70
2023-05-23T23:04:25.679Z,16.60
2023-05-23T23:06:55.033Z,16.40
2023-05-23T23:09:23.987Z,16.50
2023-05-23T23:11:52.720Z,16.50
2023-05-23T23:14:21.562Z,16.60
2023-05-23T23:16:51.120Z,16.50
2023-05-23T23:19:19.826Z,16.50
2023-05-23T23:21:50.048Z,16.50
2023-05-23T23:24:18.971Z,16.50
2023-05-23T23:26:47.783Z,16.40
2023-05-23T23:29:16.503Z,16.40
2023-05-23T23:31:45.481Z,16.40
2023-05-23T23:34:14.383Z,16.30
2023-05-23T23:36:43.082Z,16.30
2023-05-23T23:39:13.353Z,16.30
2023-05-23T23:41:42.073Z,16.30
2023-05-23T23:44:10.997Z,16.30
2023-05-23T23:46:39.839Z,16.20
2023-05-23T23:49:08.522Z,16.10
2023-05-23T23:51:37.681Z,16.20
2023-05-23T23:54:06.604Z,16.10
2023-05-23T23:56:36.780Z,16.10
2023-05-23T23:59:05.539Z,16.10
